createdAt,value
2019-03-25T00:03:24.090Z,52.39
2019-03-25T00:07:31.616Z,52.69
2019-03-25T00:11:39.244Z,52.58
2019-03-25T00:15:46.837Z,52.29
2019-03-25T00:19:54.382Z,52.21
2019-03-25T00:24:01.962Z,52.42
2019-03-25T00:28:09.575Z,52.25
2019-03-25T00:32:17.108Z,52.40
2019-03-25T00:36:24.728Z,52.52
2019-03-25T00:40:32.257Z,52.32
2019-03-25T00:44:39.867Z,52.41
2019-03-25T00:48:47.363Z,52.25
2019-03-25T00:52:54.855Z,51.65
2019-03-25T00:57:02.466Z,50.92
2019-03-25T01:01:17.292Z,51.59
2019-03-25T01:05:25.480Z,51.76
2019-03-25T01:09:33.189Z,51.91
2019-03-25T01:13:40.930Z,51.86
2019-03-25T01:17:48.618Z,51.93
2019-03-25T01:21:56.201Z,53.17
2019-03-25T01:26:03.743Z,52.79
2019-03-25T01:30:12.371Z,53.33
2019-03-25T01:34:20.132Z,53.53
2019-03-25T01:38:27.719Z,53.41
2019-03-25T01:42:35.221Z,53.62
2019-03-25T01:46:42.812Z,53.92
2019-03-25T01:50:50.524Z,54.16
2019-03-25T01:54:58.180Z,54.22
2019-03-25T01:59:06.851Z,54.24
2019-03-25T02:03:14.559Z,54.76
2019-03-25T02:07:22.262Z,54.84
2019-03-25T02:11:30.741Z,54.82
2019-03-25T02:15:38.315Z,55.13
2019-03-25T02:19:45.844Z,54.76
2019-03-25T02:23:54.118Z,55.11
2019-03-25T02:28:01.787Z,55.82
2019-03-25T02:32:09.400Z,55.73
2019-03-25T02:36:16.968Z,55.92
2019-03-25T02:40:24.443Z,56.22
2019-03-25T02:44:32.144Z,56.47
2019-03-25T02:48:40.034Z,57.15
2019-03-25T02:52:47.638Z,57.62
2019-03-25T02:56:55.372Z,57.61
2019-03-25T03:01:03.084Z,58.40
2019-03-25T03:05:10.729Z,58.41
2019-03-25T03:09:18.480Z,58.96
2019-03-25T03:13:26.135Z,58.85
2019-03-25T03:17:33.816Z,58.80
2019-03-25T03:21:41.594Z,59.08
2019-03-25T03:25:57.037Z,58.98
2019-03-25T03:29:58.450Z,59.15
2019-03-25T03:34:06.099Z,58.98
2019-03-25T03:38:13.686Z,59.09
2019-03-25T03:42:21.353Z,58.84
2019-03-25T03:46:28.980Z,59.00
2019-03-25T03:50:36.583Z,58.77
2019-03-25T03:54:45.015Z,59.03
2019-03-25T03:58:52.993Z,59.28
2019-03-25T04:03:01.004Z,59.25
2019-03-25T04:07:08.559Z,59.45
2019-03-25T04:11:17.400Z,59.59
2019-03-25T04:15:35.998Z,60.23
2019-03-25T04:19:43.668Z,60.57
2019-03-25T04:23:51.367Z,60.67
2019-03-25T04:27:59.131Z,61.06
2019-03-25T04:32:06.884Z,61.57
2019-03-25T04:36:14.611Z,61.56
2019-03-25T04:40:22.255Z,62.19
2019-03-25T04:44:30.108Z,62.39
2019-03-25T04:48:37.623Z,62.58
2019-03-25T04:52:45.170Z,62.91
2019-03-25T04:56:52.731Z,63.15
2019-03-25T05:01:00.465Z,63.52
2019-03-25T05:05:09.445Z,64.07
2019-03-25T05:09:18.060Z,64.03
2019-03-25T05:13:27.240Z,64.26
2019-03-25T05:17:34.720Z,64.21
2019-03-25T05:21:42.450Z,64.58
2019-03-25T05:25:50.149Z,64.30
2019-03-25T05:29:57.682Z,64.18
2019-03-25T05:34:07.642Z,64.25
2019-03-25T05:38:15.246Z,63.86
2019-03-25T05:42:23.009Z,63.67
2019-03-25T05:46:31.721Z,63.41
2019-03-25T05:50:42.284Z,62.81
2019-03-25T05:54:50.142Z,62.06
2019-03-25T05:59:05.873Z,61.90
2019-03-25T06:03:16.917Z,62.30
2019-03-25T06:07:24.933Z,62.27
2019-03-25T06:11:32.608Z,61.82
2019-03-25T06:15:40.207Z,62.02
2019-03-25T06:19:47.933Z,61.87
2019-03-25T06:23:55.586Z,61.76
2019-03-25T06:28:03.167Z,62.20
2019-03-25T06:32:10.876Z,61.65
2019-03-25T06:36:19.701Z,60.98
2019-03-25T06:40:27.376Z,61.18
2019-03-25T06:44:34.940Z,60.38
2019-03-25T06:48:42.441Z,60.57
2019-03-25T06:52:50.184Z,60.38
2019-03-25T06:56:58.009Z,60.80
2019-03-25T07:01:05.627Z,61.04
2019-03-25T07:05:14.628Z,61.06
2019-03-25T07:09:22.194Z,60.48
2019-03-25T07:13:30.348Z,60.49
2019-03-25T07:17:38.167Z,59.92
2019-03-25T07:21:49.329Z,60.14
2019-03-25T07:25:57.111Z,60.60
2019-03-25T07:30:05.239Z,60.83
2019-03-25T07:34:14.176Z,60.49
2019-03-25T07:38:22.084Z,61.06
2019-03-25T07:42:29.588Z,62.16
2019-03-25T07:46:37.395Z,63.75
2019-03-25T07:50:44.970Z,64.66
2019-03-25T07:54:55.090Z,65.53
2019-03-25T07:59:02.912Z,65.23
2019-03-25T08:03:10.800Z,66.66
2019-03-25T08:07:27.925Z,67.05
2019-03-25T08:11:39.981Z,68.63
2019-03-25T08:15:47.716Z,69.54
2019-03-25T08:19:55.678Z,68.84
2019-03-25T08:24:03.389Z,67.68
2019-03-25T08:28:11.134Z,65.89
2019-03-25T08:32:19.127Z,63.57
2019-03-25T08:36:27.222Z,61.95
2019-03-25T08:40:34.923Z,59.46
2019-03-25T08:44:42.599Z,57.58
2019-03-25T08:48:50.190Z,55.93
2019-03-25T08:52:57.746Z,53.63
2019-03-25T08:57:05.269Z,54.08
2019-03-25T09:01:14.933Z,54.46
2019-03-25T09:05:22.791Z,53.85
2019-03-25T09:09:30.624Z,54.17
2019-03-25T09:13:38.132Z,54.91
2019-03-25T09:17:45.800Z,55.29
2019-03-25T09:21:53.209Z,53.93
2019-03-25T09:26:00.828Z,50.11
2019-03-25T09:30:11.099Z,47.03
2019-03-25T09:34:18.855Z,45.52
2019-03-25T09:38:26.517Z,44.69
2019-03-25T09:42:34.059Z,43.33
2019-03-25T09:46:41.789Z,43.34
2019-03-25T09:50:50.481Z,44.28
2019-03-25T09:54:59.299Z,43.89
2019-03-25T09:59:09.035Z,43.66
2019-03-25T10:03:16.783Z,42.32
2019-03-25T10:07:28.309Z,42.52
2019-03-25T10:11:35.760Z,42.76
2019-03-25T10:15:44.931Z,42.94
2019-03-25T10:19:53.367Z,44.93
2019-03-25T10:24:01.317Z,45.28
2019-03-25T10:28:09.133Z,46.73
2019-03-25T10:32:17.138Z,49.28
2019-03-25T10:36:25.004Z,49.99
2019-03-25T10:40:33.303Z,51.15
2019-03-25T10:44:41.238Z,62.87
2019-03-25T10:48:49.515Z,65.11
2019-03-25T10:52:57.505Z,64.29
2019-03-25T10:57:05.353Z,64.45
2019-03-25T11:01:13.166Z,61.57
2019-03-25T11:05:20.977Z,56.41
2019-03-25T11:09:28.636Z,56.43
2019-03-25T11:13:36.236Z,55.09
2019-03-25T11:17:45.545Z,54.92
2019-03-25T11:21:53.147Z,55.91
2019-03-25T11:26:01.013Z,58.41
2019-03-25T11:30:10.128Z,59.86
2019-03-25T11:34:17.753Z,60.51
2019-03-25T11:38:25.614Z,63.68
2019-03-25T11:42:36.506Z,64.64
2019-03-25T11:46:45.056Z,65.66
2019-03-25T11:50:57.026Z,63.52
2019-03-25T11:55:11.537Z,60.08
2019-03-25T11:59:22.415Z,58.96
2019-03-25T12:03:30.851Z,57.83
2019-03-25T12:07:39.955Z,55.87
2019-03-25T12:11:48.862Z,54.34
2019-03-25T12:15:57.846Z,49.87
2019-03-25T12:20:11.557Z,47.54
2019-03-25T12:24:21.251Z,50.12
2019-03-25T12:28:33.623Z,47.87
2019-03-25T12:32:48.915Z,50.35
2019-03-25T12:37:03.833Z,45.75
2019-03-25T12:41:23.093Z,47.63
2019-03-25T12:45:35.199Z,48.49
2019-03-25T12:49:42.711Z,47.96
2019-03-25T12:53:51.745Z,47.82
2019-03-25T12:57:59.446Z,44.11
2019-03-25T13:02:10.738Z,43.76
2019-03-25T13:06:18.337Z,41.68
2019-03-25T13:10:29.733Z,42.67
2019-03-25T13:14:37.691Z,44.74
2019-03-25T13:18:54.360Z,48.23
2019-03-25T13:23:02.103Z,49.21
2019-03-25T13:27:09.681Z,53.11
2019-03-25T13:31:17.164Z,54.03
2019-03-25T13:35:24.708Z,52.68
2019-03-25T13:39:32.239Z,51.09
2019-03-25T13:43:39.787Z,49.25
2019-03-25T13:47:47.316Z,47.75
2019-03-25T13:51:55.694Z,48.00
2019-03-25T13:56:04.326Z,48.18
2019-03-25T14:00:13.762Z,48.24
2019-03-25T14:04:21.315Z,48.99
2019-03-25T14:08:29.933Z,50.52
2019-03-25T14:12:37.558Z,50.90
2019-03-25T14:16:46.179Z,51.54
2019-03-25T14:20:53.747Z,52.18
2019-03-25T14:25:01.859Z,50.65
2019-03-25T14:29:09.334Z,50.12
2019-03-25T14:33:16.872Z,49.99
2019-03-25T14:37:25.907Z,48.76
2019-03-25T14:41:33.605Z,48.70
2019-03-25T14:45:41.301Z,47.21
2019-03-25T14:49:48.805Z,46.48
2019-03-25T14:53:56.487Z,48.11
2019-03-25T14:58:04.080Z,46.71
2019-03-25T15:02:11.868Z,47.09
2019-03-25T15:06:20.811Z,47.41
2019-03-25T15:10:28.377Z,48.85
2019-03-25T15:14:36.121Z,49.56
2019-03-25T15:18:43.910Z,51.37
2019-03-25T15:22:51.550Z,50.12
2019-03-25T15:26:59.205Z,50.02
2019-03-25T15:31:06.978Z,50.63
2019-03-25T15:35:14.814Z,50.98
2019-03-25T15:39:24.311Z,51.76
2019-03-25T15:43:32.175Z,51.28
2019-03-25T15:47:40.694Z,51.58
2019-03-25T15:51:48.704Z,52.21
2019-03-25T15:55:56.221Z,52.45
2019-03-25T16:00:03.995Z,53.56
2019-03-25T16:04:12.018Z,53.79
2019-03-25T16:08:19.880Z,54.20
2019-03-25T16:12:27.443Z,54.87
2019-03-25T16:16:35.166Z,55.44
2019-03-25T16:20:42.725Z,55.50
2019-03-25T16:24:50.295Z,55.49
2019-03-25T16:28:57.798Z,55.34
2019-03-25T16:33:05.383Z,54.82
2019-03-25T16:37:13.066Z,55.11
2019-03-25T16:41:20.707Z,56.02
2019-03-25T16:45:28.492Z,55.62
2019-03-25T16:49:36.045Z,55.81
2019-03-25T16:53:43.731Z,57.06
2019-03-25T16:57:51.365Z,59.24
2019-03-25T17:02:01.044Z,59.97
2019-03-25T17:06:08.685Z,60.67
2019-03-25T17:10:16.450Z,60.97
2019-03-25T17:14:24.075Z,61.20
2019-03-25T17:18:31.793Z,60.80
2019-03-25T17:22:39.411Z,60.41
2019-03-25T17:26:46.948Z,61.44
2019-03-25T17:30:54.507Z,64.09
2019-03-25T17:35:02.156Z,64.66
2019-03-25T17:39:11.437Z,65.75
2019-03-25T17:43:19.913Z,67.54
2019-03-25T17:47:27.445Z,67.93
2019-03-25T17:51:35.118Z,68.32
2019-03-25T17:55:42.607Z,69.32
2019-03-25T17:59:50.211Z,68.41
2019-03-25T18:03:59.121Z,68.97
2019-03-25T18:08:06.790Z,67.66
2019-03-25T18:12:14.423Z,67.34
2019-03-25T18:16:22.587Z,67.22
2019-03-25T18:20:31.358Z,67.50
2019-03-25T18:24:41.895Z,67.86
2019-03-25T18:28:49.645Z,67.27
2019-03-25T18:32:58.051Z,68.19
2019-03-25T18:37:05.947Z,67.75
2019-03-25T18:41:13.746Z,67.89
2019-03-25T18:45:21.265Z,68.36
2019-03-25T18:49:28.924Z,68.02
2019-03-25T18:53:37.205Z,68.19
2019-03-25T18:57:44.838Z,67.93
2019-03-25T19:01:54.773Z,68.00
2019-03-25T19:06:02.226Z,67.81
2019-03-25T19:10:14.779Z,67.58
2019-03-25T19:14:23.418Z,67.57
2019-03-25T19:18:31.094Z,67.71
2019-03-25T19:22:38.710Z,67.78
2019-03-25T19:26:47.443Z,67.62
2019-03-25T19:30:55.111Z,67.33
2019-03-25T19:35:04.046Z,67.55
2019-03-25T19:39:11.661Z,67.12
2019-03-25T19:43:19.264Z,67.51
2019-03-25T19:47:26.945Z,67.90
2019-03-25T19:51:35.032Z,67.82
2019-03-25T19:55:42.720Z,67.67
2019-03-25T19:59:50.253Z,67.88
2019-03-25T20:03:58.124Z,67.58
2019-03-25T20:08:05.983Z,67.82
2019-03-25T20:12:13.954Z,67.73
2019-03-25T20:16:22.678Z,67.66
2019-03-25T20:20:31.290Z,67.69
2019-03-25T20:24:38.875Z,67.38
2019-03-25T20:28:46.812Z,67.51
2019-03-25T20:32:54.565Z,67.70
2019-03-25T20:37:02.240Z,67.71
2019-03-25T20:41:09.872Z,67.47
2019-03-25T20:45:18.443Z,67.62
2019-03-25T20:49:26.211Z,67.22
2019-03-25T20:53:33.955Z,67.54
2019-03-25T20:57:41.672Z,67.73
2019-03-25T21:01:49.448Z,68.25
2019-03-25T21:05:57.090Z,68.18
2019-03-25T21:10:05.892Z,68.07
2019-03-25T21:14:22.415Z,68.26
2019-03-25T21:18:30.746Z,68.54
2019-03-25T21:22:38.551Z,68.79
2019-03-25T21:26:46.336Z,68.91
2019-03-25T21:30:53.896Z,75.00
2019-03-25T21:35:01.598Z,68.48
2019-03-25T21:39:09.952Z,68.74
2019-03-25T21:43:17.472Z,68.52
2019-03-25T21:47:25.069Z,68.78
2019-03-25T21:51:32.667Z,68.21
2019-03-25T21:55:40.185Z,68.27
2019-03-25T21:59:47.736Z,68.80
2019-03-25T22:03:55.528Z,68.05
2019-03-25T22:08:04.414Z,68.54
2019-03-25T22:12:11.935Z,68.02
2019-03-25T22:16:19.498Z,68.35
2019-03-25T22:20:27.114Z,68.36
2019-03-25T22:24:34.582Z,68.37
2019-03-25T22:28:42.568Z,67.80
2019-03-25T22:32:50.132Z,68.11
2019-03-25T22:36:57.704Z,68.21
2019-03-25T22:41:05.347Z,67.87
2019-03-25T22:45:13.270Z,68.00
2019-03-25T22:49:20.649Z,67.52
2019-03-25T22:53:28.197Z,67.71
2019-03-25T22:57:35.792Z,67.61
2019-03-25T23:01:43.372Z,67.85
2019-03-25T23:05:50.882Z,67.43
2019-03-25T23:09:58.481Z,67.54
2019-03-25T23:14:06.009Z,67.81
2019-03-25T23:18:13.646Z,67.61
2019-03-25T23:22:21.125Z,67.53
2019-03-25T23:26:28.684Z,67.47
2019-03-25T23:30:36.203Z,67.38
2019-03-25T23:34:43.807Z,67.51
2019-03-25T23:38:51.322Z,67.61
2019-03-25T23:42:58.915Z,67.90
2019-03-25T23:47:06.531Z,67.78
2019-03-25T23:51:14.089Z,68.05
2019-03-25T23:55:21.597Z,68.42
2019-03-25T23:59:29.185Z,68.08
